sensor_id;sensor_type;location;lat;lon;timestamp;temperature;humidity
29295;DHT22;16305;48.566;8.846;2023-02-27T00:00:31;-3.00;99.90
29295;DHT22;16305;48.566;8.846;2023-02-27T00:02:57;-3.00;99.90
29295;DHT22;16305;48.566;8.846;2023-02-27T00:05:23;-3.00;99.90
29295;DHT22;16305;48.566;8.846;2023-02-27T00:07:49;-3.00;99.90
29295;DHT22;16305;48.566;8.846;2023-02-27T00:10:15;-2.90;99.90
29295;DHT22;16305;48.566;8.846;2023-02-27T00:12:41;-3.00;99.90
29295;DHT22;16305;48.566;8.846;2023-02-27T00:15:08;-3.00;99.90
29295;DHT22;16305;48.566;8.846;2023-02-27T00:17:35;-3.00;99.90
29295;DHT22;16305;48.566;8.846;2023-02-27T00:20:01;-3.00;99.90
29295;DHT22;16305;48.566;8.846;2023-02-27T00:22:26;-3.00;99.90
29295;DHT22;16305;48.566;8.846;2023-02-27T00:24:52;-2.90;99.90
29295;DHT22;16305;48.566;8.846;2023-02-27T00:27:17;-3.00;99.90
29295;DHT22;16305;48.566;8.846;2023-02-27T00:29:43;-3.00;99.90
29295;DHT22;16305;48.566;8.846;2023-02-27T00:32:08;-3.10;99.90
29295;DHT22;16305;48.566;8.846;2023-02-27T00:34:34;-3.10;99.90
29295;DHT22;16305;48.566;8.846;2023-02-27T00:37:00;-3.10;99.90
29295;DHT22;16305;48.566;8.846;2023-02-27T00:39:25;-3.10;99.90
29295;DHT22;16305;48.566;8.846;2023-02-27T00:41:51;-3.10;99.90
29295;DHT22;16305;48.566;8.846;2023-02-27T00:44:16;-3.10;99.90
29295;DHT22;16305;48.566;8.846;2023-02-27T00:46:42;-3.10;99.90
29295;DHT22;16305;48.566;8.846;2023-02-27T00:49:07;-3.10;99.90
29295;DHT22;16305;48.566;8.846;2023-02-27T00:51:33;-3.10;99.90
29295;DHT22;16305;48.566;8.846;2023-02-27T00:53:58;-3.10;99.90
29295;DHT22;16305;48.566;8.846;2023-02-27T00:56:24;-3.00;99.90
29295;DHT22;16305;48.566;8.846;2023-02-27T00:58:49;-3.00;99.90
29295;DHT22;16305;48.566;8.846;2023-02-27T01:01:15;-3.10;99.90
29295;DHT22;16305;48.566;8.846;2023-02-27T01:03:40;-3.00;99.90
29295;DHT22;16305;48.566;8.846;2023-02-27T01:06:06;-3.00;99.90
29295;DHT22;16305;48.566;8.846;2023-02-27T01:08:32;-3.00;99.90
29295;DHT22;16305;48.566;8.846;2023-02-27T01:10:58;-3.00;99.90
29295;DHT22;16305;48.566;8.846;2023-02-27T01:13:24;-3.00;99.90
29295;DHT22;16305;48.566;8.846;2023-02-27T01:15:49;-3.00;99.90
29295;DHT22;16305;48.566;8.846;2023-02-27T01:18:15;-3.00;99.90
29295;DHT22;16305;48.566;8.846;2023-02-27T01:20:40;-3.10;99.90
29295;DHT22;16305;48.566;8.846;2023-02-27T01:23:06;-3.10;99.90
29295;DHT22;16305;48.566;8.846;2023-02-27T01:25:31;-3.20;99.90
29295;DHT22;16305;48.566;8.846;2023-02-27T01:27:57;-3.10;99.90
29295;DHT22;16305;48.566;8.846;2023-02-27T01:30:22;-3.20;99.90
29295;DHT22;16305;48.566;8.846;2023-02-27T01:32:48;-3.20;99.90
29295;DHT22;16305;48.566;8.846;2023-02-27T01:35:13;-3.10;99.90
29295;DHT22;16305;48.566;8.846;2023-02-27T01:37:39;-3.10;99.90
29295;DHT22;16305;48.566;8.846;2023-02-27T01:40:06;-3.10;99.90
29295;DHT22;16305;48.566;8.846;2023-02-27T01:42:32;-3.00;99.90
29295;DHT22;16305;48.566;8.846;2023-02-27T01:47:39;-3.10;99.90
29295;DHT22;16305;48.566;8.846;2023-02-27T01:50:07;-3.10;99.90
29295;DHT22;16305;48.566;8.846;2023-02-27T01:52:33;-3.10;99.90
29295;DHT22;16305;48.566;8.846;2023-02-27T01:55:01;-3.10;99.90
29295;DHT22;16305;48.566;8.846;2023-02-27T01:57:27;-3.10;99.90
29295;DHT22;16305;48.566;8.846;2023-02-27T01:59:53;-3.20;99.90
29295;DHT22;16305;48.566;8.846;2023-02-27T02:02:24;-3.20;99.90
29295;DHT22;16305;48.566;8.846;2023-02-27T02:04:51;-3.20;99.90
29295;DHT22;16305;48.566;8.846;2023-02-27T02:07:20;-3.10;99.90
29295;DHT22;16305;48.566;8.846;2023-02-27T02:09:49;-3.20;99.90
29295;DHT22;16305;48.566;8.846;2023-02-27T02:12:17;-3.20;99.90
29295;DHT22;16305;48.566;8.846;2023-02-27T02:14:44;-3.20;99.90
29295;DHT22;16305;48.566;8.846;2023-02-27T02:17:22;-3.20;99.90
29295;DHT22;16305;48.566;8.846;2023-02-27T02:25:26;-3.20;99.90
29295;DHT22;16305;48.566;8.846;2023-02-27T02:39:30;-3.10;99.90
29295;DHT22;16305;48.566;8.846;2023-02-27T02:45:20;-3.20;99.90
29295;DHT22;16305;48.566;8.846;2023-02-27T02:48:01;-3.20;99.90
29295;DHT22;16305;48.566;8.846;2023-02-27T02:50:43;-3.30;99.90
29295;DHT22;16305;48.566;8.846;2023-02-27T02:56:21;-3.30;99.90
29295;DHT22;16305;48.566;8.846;2023-02-27T02:59:00;-3.30;99.90
29295;DHT22;16305;48.566;8.846;2023-02-27T03:01:39;-3.30;99.90
29295;DHT22;16305;48.566;8.846;2023-02-27T03:04:11;-3.30;99.90
29295;DHT22;16305;48.566;8.846;2023-02-27T03:06:45;-3.30;99.90
29295;DHT22;16305;48.566;8.846;2023-02-27T03:09:35;-3.30;99.90
29295;DHT22;16305;48.566;8.846;2023-02-27T03:12:03;-3.40;99.90
29295;DHT22;16305;48.566;8.846;2023-02-27T03:14:34;-3.40;99.90
29295;DHT22;16305;48.566;8.846;2023-02-27T03:17:09;-3.40;99.90
29295;DHT22;16305;48.566;8.846;2023-02-27T03:19:51;-3.40;99.90
29295;DHT22;16305;48.566;8.846;2023-02-27T03:22:22;-3.40;99.90
29295;DHT22;16305;48.566;8.846;2023-02-27T03:24:52;-3.40;99.90
29295;DHT22;16305;48.566;8.846;2023-02-27T03:27:20;-3.40;99.90
29295;DHT22;16305;48.566;8.846;2023-02-27T03:29:57;-3.40;99.90
29295;DHT22;16305;48.566;8.846;2023-02-27T03:34:58;-3.50;99.90
29295;DHT22;16305;48.566;8.846;2023-02-27T03:37:34;-3.40;99.90
29295;DHT22;16305;48.566;8.846;2023-02-27T03:40:16;-3.50;99.90
29295;DHT22;16305;48.566;8.846;2023-02-27T03:42:49;-3.50;99.90
29295;DHT22;16305;48.566;8.846;2023-02-27T03:45:37;-3.50;99.90
29295;DHT22;16305;48.566;8.846;2023-02-27T03:48:05;-3.50;99.90
29295;DHT22;16305;48.566;8.846;2023-02-27T03:50:34;-3.50;99.90
29295;DHT22;16305;48.566;8.846;2023-02-27T03:53:05;-3.50;99.90
29295;DHT22;16305;48.566;8.846;2023-02-27T03:55:34;-3.50;99.90
29295;DHT22;16305;48.566;8.846;2023-02-27T03:58:04;-3.50;99.90
29295;DHT22;16305;48.566;8.846;2023-02-27T04:00:30;-3.50;99.90
29295;DHT22;16305;48.566;8.846;2023-02-27T04:02:58;-3.50;99.90
29295;DHT22;16305;48.566;8.846;2023-02-27T04:05:24;-3.50;99.90
29295;DHT22;16305;48.566;8.846;2023-02-27T04:08:38;-3.50;99.90
29295;DHT22;16305;48.566;8.846;2023-02-27T04:11:17;-3.50;99.90
29295;DHT22;16305;48.566;8.846;2023-02-27T04:14:33;-3.50;99.90
29295;DHT22;16305;48.566;8.846;2023-02-27T04:17:15;-3.60;99.90
29295;DHT22;16305;48.566;8.846;2023-02-27T04:20:15;-3.50;99.90
29295;DHT22;16305;48.566;8.846;2023-02-27T04:25:27;-3.60;99.90
29295;DHT22;16305;48.566;8.846;2023-02-27T04:33:41;-3.60;99.90
29295;DHT22;16305;48.566;8.846;2023-02-27T04:38:45;-3.60;99.90
29295;DHT22;16305;48.566;8.846;2023-02-27T04:41:24;-3.60;99.90
29295;DHT22;16305;48.566;8.846;2023-02-27T04:43:52;-3.60;99.90
29295;DHT22;16305;48.566;8.846;2023-02-27T04:46:23;-3.60;99.90
29295;DHT22;16305;48.566;8.846;2023-02-27T04:49:08;-3.60;99.90
29295;DHT22;16305;48.566;8.846;2023-02-27T04:51:59;-3.60;99.90
29295;DHT22;16305;48.566;8.846;2023-02-27T04:54:31;-3.60;99.90
29295;DHT22;16305;48.566;8.846;2023-02-27T04:57:03;-3.60;99.90
29295;DHT22;16305;48.566;8.846;2023-02-27T04:59:35;-3.60;99.90
29295;DHT22;16305;48.566;8.846;2023-02-27T05:02:16;-3.50;99.90
29295;DHT22;16305;48.566;8.846;2023-02-27T05:04:45;-3.60;99.90
29295;DHT22;16305;48.566;8.846;2023-02-27T05:07:16;-3.60;99.90
29295;DHT22;16305;48.566;8.846;2023-02-27T05:09:55;-3.60;99.90
29295;DHT22;16305;48.566;8.846;2023-02-27T05:12:46;-3.70;99.90
29295;DHT22;16305;48.566;8.846;2023-02-27T05:18:05;-3.60;99.90
29295;DHT22;16305;48.566;8.846;2023-02-27T05:20:40;-3.60;99.90
29295;DHT22;16305;48.566;8.846;2023-02-27T05:26:43;-3.60;99.90
29295;DHT22;16305;48.566;8.846;2023-02-27T05:29:27;-3.60;99.90
29295;DHT22;16305;48.566;8.846;2023-02-27T05:34:36;-3.60;99.90
29295;DHT22;16305;48.566;8.846;2023-02-27T05:37:15;-3.60;99.90
29295;DHT22;16305;48.566;8.846;2023-02-27T05:39:44;-3.60;99.90
29295;DHT22;16305;48.566;8.846;2023-02-27T05:42:31;-3.60;99.90
29295;DHT22;16305;48.566;8.846;2023-02-27T05:45:04;-3.60;99.90
29295;DHT22;16305;48.566;8.846;2023-02-27T05:47:33;-3.60;99.90
29295;DHT22;16305;48.566;8.846;2023-02-27T05:50:07;-3.60;99.90
29295;DHT22;16305;48.566;8.846;2023-02-27T05:52:34;-3.60;99.90
29295;DHT22;16305;48.566;8.846;2023-02-27T05:55:13;-3.60;99.90
29295;DHT22;16305;48.566;8.846;2023-02-27T05:58:11;-3.60;99.90
29295;DHT22;16305;48.566;8.846;2023-02-27T06:03:08;-3.70;99.90
29295;DHT22;16305;48.566;8.846;2023-02-27T06:05:36;-3.70;99.90
29295;DHT22;16305;48.566;8.846;2023-02-27T06:08:01;-3.70;99.90
29295;DHT22;16305;48.566;8.846;2023-02-27T06:10:27;-3.70;99.90
29295;DHT22;16305;48.566;8.846;2023-02-27T06:12:53;-3.60;99.90
29295;DHT22;16305;48.566;8.846;2023-02-27T06:15:18;-3.60;99.90
29295;DHT22;16305;48.566;8.846;2023-02-27T06:17:44;-3.60;99.90
29295;DHT22;16305;48.566;8.846;2023-02-27T06:20:10;-3.60;99.90
29295;DHT22;16305;48.566;8.846;2023-02-27T06:22:36;-3.60;99.90
29295;DHT22;16305;48.566;8.846;2023-02-27T06:25:02;-3.60;99.90
29295;DHT22;16305;48.566;8.846;2023-02-27T06:27:28;-3.60;99.90
29295;DHT22;16305;48.566;8.846;2023-02-27T06:29:53;-3.60;99.90
29295;DHT22;16305;48.566;8.846;2023-02-27T06:32:20;-3.60;99.90
29295;DHT22;16305;48.566;8.846;2023-02-27T06:34:46;-3.70;99.90
29295;DHT22;16305;48.566;8.846;2023-02-27T06:37:12;-3.70;99.90
29295;DHT22;16305;48.566;8.846;2023-02-27T06:39:37;-3.60;99.90
29295;DHT22;16305;48.566;8.846;2023-02-27T06:42:03;-3.60;99.90
29295;DHT22;16305;48.566;8.846;2023-02-27T06:44:28;-3.70;99.90
29295;DHT22;16305;48.566;8.846;2023-02-27T06:46:54;-3.60;99.90
29295;DHT22;16305;48.566;8.846;2023-02-27T06:49:20;-3.60;99.90
29295;DHT22;16305;48.566;8.846;2023-02-27T06:51:46;-3.60;99.90
29295;DHT22;16305;48.566;8.846;2023-02-27T06:54:12;-3.60;99.90
29295;DHT22;16305;48.566;8.846;2023-02-27T06:56:37;-3.60;99.90
29295;DHT22;16305;48.566;8.846;2023-02-27T06:59:03;-3.60;99.90
29295;DHT22;16305;48.566;8.846;2023-02-27T07:01:29;-3.50;99.90
29295;DHT22;16305;48.566;8.846;2023-02-27T07:03:54;-3.50;99.90
29295;DHT22;16305;48.566;8.846;2023-02-27T07:06:20;-3.40;99.90
29295;DHT22;16305;48.566;8.846;2023-02-27T07:08:45;-3.30;99.90
29295;DHT22;16305;48.566;8.846;2023-02-27T07:11:11;-3.30;99.90
29295;DHT22;16305;48.566;8.846;2023-02-27T07:13:36;-3.20;99.90
29295;DHT22;16305;48.566;8.846;2023-02-27T07:16:02;-3.10;99.90
29295;DHT22;16305;48.566;8.846;2023-02-27T07:18:28;-3.10;99.90
29295;DHT22;16305;48.566;8.846;2023-02-27T07:20:53;-3.00;99.90
29295;DHT22;16305;48.566;8.846;2023-02-27T07:23:20;-3.00;99.90
29295;DHT22;16305;48.566;8.846;2023-02-27T07:25:46;-2.90;99.90
29295;DHT22;16305;48.566;8.846;2023-02-27T07:28:12;-2.90;99.90
29295;DHT22;16305;48.566;8.846;2023-02-27T07:30:38;-2.80;99.90
29295;DHT22;16305;48.566;8.846;2023-02-27T07:33:03;-2.70;99.90
29295;DHT22;16305;48.566;8.846;2023-02-27T07:35:29;-2.70;99.90
29295;DHT22;16305;48.566;8.846;2023-02-27T07:37:55;-2.70;99.90
29295;DHT22;16305;48.566;8.846;2023-02-27T07:40:20;-2.60;99.90
29295;DHT22;16305;48.566;8.846;2023-02-27T07:42:47;-2.60;99.90
29295;DHT22;16305;48.566;8.846;2023-02-27T07:45:13;-2.50;99.90
29295;DHT22;16305;48.566;8.846;2023-02-27T07:47:38;-2.40;99.90
29295;DHT22;16305;48.566;8.846;2023-02-27T07:50:05;-2.40;99.90
29295;DHT22;16305;48.566;8.846;2023-02-27T07:52:30;-2.30;99.90
29295;DHT22;16305;48.566;8.846;2023-02-27T07:54:56;-2.30;99.90
29295;DHT22;16305;48.566;8.846;2023-02-27T07:57:21;-2.20;99.90
29295;DHT22;16305;48.566;8.846;2023-02-27T07:59:47;-2.20;99.90
29295;DHT22;16305;48.566;8.846;2023-02-27T08:02:13;-2.10;99.90
29295;DHT22;16305;48.566;8.846;2023-02-27T08:04:38;-2.00;99.90
29295;DHT22;16305;48.566;8.846;2023-02-27T08:07:04;-1.90;99.90
29295;DHT22;16305;48.566;8.846;2023-02-27T08:09:30;-1.90;99.90
29295;DHT22;16305;48.566;8.846;2023-02-27T08:11:57;-1.80;99.90
29295;DHT22;16305;48.566;8.846;2023-02-27T08:14:22;-1.80;99.90
29295;DHT22;16305;48.566;8.846;2023-02-27T08:16:49;-1.70;99.90
29295;DHT22;16305;48.566;8.846;2023-02-27T08:19:15;-1.70;99.90
29295;DHT22;16305;48.566;8.846;2023-02-27T08:21:41;-1.60;99.90
29295;DHT22;16305;48.566;8.846;2023-02-27T08:24:07;-1.70;99.90
29295;DHT22;16305;48.566;8.846;2023-02-27T08:26:32;-1.60;99.90
29295;DHT22;16305;48.566;8.846;2023-02-27T08:28:58;-1.60;99.90
29295;DHT22;16305;48.566;8.846;2023-02-27T08:31:23;-1.50;99.90
29295;DHT22;16305;48.566;8.846;2023-02-27T08:33:49;-1.40;99.90
29295;DHT22;16305;48.566;8.846;2023-02-27T08:36:15;-1.40;99.90
29295;DHT22;16305;48.566;8.846;2023-02-27T08:38:40;-1.40;99.90
29295;DHT22;16305;48.566;8.846;2023-02-27T08:41:06;-1.30;99.90
29295;DHT22;16305;48.566;8.846;2023-02-27T08:43:31;-1.30;99.90
29295;DHT22;16305;48.566;8.846;2023-02-27T08:45:57;-1.30;99.90
29295;DHT22;16305;48.566;8.846;2023-02-27T08:48:23;-1.20;99.90
29295;DHT22;16305;48.566;8.846;2023-02-27T08:50:49;-1.10;99.90
29295;DHT22;16305;48.566;8.846;2023-02-27T08:53:15;-1.00;99.90
29295;DHT22;16305;48.566;8.846;2023-02-27T08:55:40;-0.90;99.90
29295;DHT22;16305;48.566;8.846;2023-02-27T08:58:07;-0.80;99.90
29295;DHT22;16305;48.566;8.846;2023-02-27T09:00:32;-0.70;99.90
29295;DHT22;16305;48.566;8.846;2023-02-27T09:02:58;-0.80;99.90
29295;DHT22;16305;48.566;8.846;2023-02-27T09:05:25;-0.80;99.90
29295;DHT22;16305;48.566;8.846;2023-02-27T09:07:51;-0.70;99.90
29295;DHT22;16305;48.566;8.846;2023-02-27T09:10:17;-0.60;99.90
29295;DHT22;16305;48.566;8.846;2023-02-27T09:12:43;-0.60;99.90
29295;DHT22;16305;48.566;8.846;2023-02-27T09:15:09;-0.60;99.90
29295;DHT22;16305;48.566;8.846;2023-02-27T09:17:35;-0.50;99.90
29295;DHT22;16305;48.566;8.846;2023-02-27T09:20:01;-0.50;99.90
29295;DHT22;16305;48.566;8.846;2023-02-27T09:22:28;-0.30;99.90
29295;DHT22;16305;48.566;8.846;2023-02-27T09:24:54;-0.30;99.90
29295;DHT22;16305;48.566;8.846;2023-02-27T09:27:20;-0.30;99.90
29295;DHT22;16305;48.566;8.846;2023-02-27T09:29:45;-0.30;99.90
29295;DHT22;16305;48.566;8.846;2023-02-27T09:32:13;-0.30;99.90
29295;DHT22;16305;48.566;8.846;2023-02-27T09:34:38;-0.20;99.90
29295;DHT22;16305;48.566;8.846;2023-02-27T09:37:04;-0.20;99.90
29295;DHT22;16305;48.566;8.846;2023-02-27T09:39:29;-0.10;99.90
29295;DHT22;16305;48.566;8.846;2023-02-27T09:42:13;-0.10;99.90
29295;DHT22;16305;48.566;8.846;2023-02-27T09:44:54;-0.10;99.90
29295;DHT22;16305;48.566;8.846;2023-02-27T09:47:28;0.00;99.90
29295;DHT22;16305;48.566;8.846;2023-02-27T09:52:41;0.30;99.90
29295;DHT22;16305;48.566;8.846;2023-02-27T09:55:21;0.30;99.90
29295;DHT22;16305;48.566;8.846;2023-02-27T10:00:30;0.30;99.90
29295;DHT22;16305;48.566;8.846;2023-02-27T10:03:29;0.50;99.90
29295;DHT22;16305;48.566;8.846;2023-02-27T10:06:26;0.60;99.90
29295;DHT22;16305;48.566;8.846;2023-02-27T10:11:31;0.70;99.90
29295;DHT22;16305;48.566;8.846;2023-02-27T10:16:47;0.70;99.90
29295;DHT22;16305;48.566;8.846;2023-02-27T10:19:22;0.80;99.90
29295;DHT22;16305;48.566;8.846;2023-02-27T10:21:50;0.80;99.90
29295;DHT22;16305;48.566;8.846;2023-02-27T10:24:24;0.80;99.90
29295;DHT22;16305;48.566;8.846;2023-02-27T10:26:53;0.80;99.90
29295;DHT22;16305;48.566;8.846;2023-02-27T10:29:27;0.90;99.90
29295;DHT22;16305;48.566;8.846;2023-02-27T10:32:15;0.90;99.90
29295;DHT22;16305;48.566;8.846;2023-02-27T10:34:44;1.00;99.90
29295;DHT22;16305;48.566;8.846;2023-02-27T10:37:14;1.10;99.90
29295;DHT22;16305;48.566;8.846;2023-02-27T10:39:58;1.20;99.90
29295;DHT22;16305;48.566;8.846;2023-02-27T10:42:28;1.30;99.90
29295;DHT22;16305;48.566;8.846;2023-02-27T10:44:54;1.50;99.90
29295;DHT22;16305;48.566;8.846;2023-02-27T10:47:22;1.40;99.90
29295;DHT22;16305;48.566;8.846;2023-02-27T10:49:49;1.30;99.90
29295;DHT22;16305;48.566;8.846;2023-02-27T10:52:16;1.30;99.90
29295;DHT22;16305;48.566;8.846;2023-02-27T10:54:42;1.30;99.90
29295;DHT22;16305;48.566;8.846;2023-02-27T10:57:35;1.20;99.90
29295;DHT22;16305;48.566;8.846;2023-02-27T11:00:09;1.40;99.90
29295;DHT22;16305;48.566;8.846;2023-02-27T11:02:48;1.30;99.90
29295;DHT22;16305;48.566;8.846;2023-02-27T11:05:27;1.50;99.90
29295;DHT22;16305;48.566;8.846;2023-02-27T11:07:55;1.70;99.90
29295;DHT22;16305;48.566;8.846;2023-02-27T11:10:24;1.90;99.90
29295;DHT22;16305;48.566;8.846;2023-02-27T11:13:19;1.90;99.90
29295;DHT22;16305;48.566;8.846;2023-02-27T11:16:15;2.10;99.90
29295;DHT22;16305;48.566;8.846;2023-02-27T11:18:43;1.90;99.90
29295;DHT22;16305;48.566;8.846;2023-02-27T11:21:38;1.80;99.90
29295;DHT22;16305;48.566;8.846;2023-02-27T11:24:16;1.70;99.90
29295;DHT22;16305;48.566;8.846;2023-02-27T11:26:57;1.70;99.90
29295;DHT22;16305;48.566;8.846;2023-02-27T11:29:24;1.80;99.90
29295;DHT22;16305;48.566;8.846;2023-02-27T11:32:03;1.90;99.90
29295;DHT22;16305;48.566;8.846;2023-02-27T11:34:37;2.10;99.90
29295;DHT22;16305;48.566;8.846;2023-02-27T11:37:29;1.90;99.90
29295;DHT22;16305;48.566;8.846;2023-02-27T11:40:12;1.70;99.90
29295;DHT22;16305;48.566;8.846;2023-02-27T11:42:47;1.40;99.90
29295;DHT22;16305;48.566;8.846;2023-02-27T11:47:48;1.60;99.90
29295;DHT22;16305;48.566;8.846;2023-02-27T11:53:48;1.70;99.90
29295;DHT22;16305;48.566;8.846;2023-02-27T11:56:18;1.70;99.90
29295;DHT22;16305;48.566;8.846;2023-02-27T11:58:57;1.90;99.90
29295;DHT22;16305;48.566;8.846;2023-02-27T12:01:28;2.10;99.90
29295;DHT22;16305;48.566;8.846;2023-02-27T12:04:13;2.30;99.90
29295;DHT22;16305;48.566;8.846;2023-02-27T12:12:23;2.30;99.90
29295;DHT22;16305;48.566;8.846;2023-02-27T12:17:24;2.40;99.90
29295;DHT22;16305;48.566;8.846;2023-02-27T12:19:57;2.70;99.90
29295;DHT22;16305;48.566;8.846;2023-02-27T12:22:34;2.60;99.90
29295;DHT22;16305;48.566;8.846;2023-02-27T12:25:11;2.50;99.90
29295;DHT22;16305;48.566;8.846;2023-02-27T12:27:55;2.50;99.90
29295;DHT22;16305;48.566;8.846;2023-02-27T12:30:33;2.40;99.90
29295;DHT22;16305;48.566;8.846;2023-02-27T12:33:15;2.30;99.90
29295;DHT22;16305;48.566;8.846;2023-02-27T12:35:45;2.10;99.90
29295;DHT22;16305;48.566;8.846;2023-02-27T12:38:14;2.00;99.90
29295;DHT22;16305;48.566;8.846;2023-02-27T12:49:10;1.80;99.90
29295;DHT22;16305;48.566;8.846;2023-02-27T12:54:37;2.90;99.90
29295;DHT22;16305;48.566;8.846;2023-02-27T13:00:03;6.10;99.90
29295;DHT22;16305;48.566;8.846;2023-02-27T13:14:05;2.10;99.90
29295;DHT22;16305;48.566;8.846;2023-02-27T13:16:38;2.00;99.90
29295;DHT22;16305;48.566;8.846;2023-02-27T13:19:13;1.90;99.90
29295;DHT22;16305;48.566;8.846;2023-02-27T13:21:51;2.00;99.90
29295;DHT22;16305;48.566;8.846;2023-02-27T13:27:30;2.20;99.90
29295;DHT22;16305;48.566;8.846;2023-02-27T13:29:58;2.30;99.90
29295;DHT22;16305;48.566;8.846;2023-02-27T13:38:44;2.70;99.90
29295;DHT22;16305;48.566;8.846;2023-02-27T13:46:28;2.60;99.90
29295;DHT22;16305;48.566;8.846;2023-02-27T14:01:56;2.60;99.90
29295;DHT22;16305;48.566;8.846;2023-02-27T14:04:24;2.40;99.90
29295;DHT22;16305;48.566;8.846;2023-02-27T14:06:59;2.30;99.90
29295;DHT22;16305;48.566;8.846;2023-02-27T14:09:35;2.30;99.90
29295;DHT22;16305;48.566;8.846;2023-02-27T14:12:03;2.20;99.90
29295;DHT22;16305;48.566;8.846;2023-02-27T14:14:45;2.00;99.90
29295;DHT22;16305;48.566;8.846;2023-02-27T14:17:13;1.90;99.90
29295;DHT22;16305;48.566;8.846;2023-02-27T14:19:58;1.80;99.90
29295;DHT22;16305;48.566;8.846;2023-02-27T14:22:36;1.70;99.90
29295;DHT22;16305;48.566;8.846;2023-02-27T14:25:23;1.70;99.90
29295;DHT22;16305;48.566;8.846;2023-02-27T14:27:53;1.60;99.90
29295;DHT22;16305;48.566;8.846;2023-02-27T14:33:14;1.50;99.90
29295;DHT22;16305;48.566;8.846;2023-02-27T14:35:49;1.40;99.90
29295;DHT22;16305;48.566;8.846;2023-02-27T14:38:18;1.40;99.90
29295;DHT22;16305;48.566;8.846;2023-02-27T14:43:46;1.50;99.90
29295;DHT22;16305;48.566;8.846;2023-02-27T14:46:21;1.50;99.90
29295;DHT22;16305;48.566;8.846;2023-02-27T14:48:53;1.50;99.90
29295;DHT22;16305;48.566;8.846;2023-02-27T14:51:20;1.50;99.90
29295;DHT22;16305;48.566;8.846;2023-02-27T14:54:14;1.50;99.90
29295;DHT22;16305;48.566;8.846;2023-02-27T14:56:40;1.50;99.90
29295;DHT22;16305;48.566;8.846;2023-02-27T15:01:52;1.50;99.90
29295;DHT22;16305;48.566;8.846;2023-02-27T15:04:20;1.50;99.90
29295;DHT22;16305;48.566;8.846;2023-02-27T15:06:51;1.50;99.90
29295;DHT22;16305;48.566;8.846;2023-02-27T15:09:33;1.60;99.90
29295;DHT22;16305;48.566;8.846;2023-02-27T15:11:59;1.70;99.90
29295;DHT22;16305;48.566;8.846;2023-02-27T15:14:32;1.80;99.90
29295;DHT22;16305;48.566;8.846;2023-02-27T15:16:59;1.80;99.90
29295;DHT22;16305;48.566;8.846;2023-02-27T15:19:27;1.70;99.90
29295;DHT22;16305;48.566;8.846;2023-02-27T15:21:55;1.70;99.90
29295;DHT22;16305;48.566;8.846;2023-02-27T15:24:33;1.60;99.90
29295;DHT22;16305;48.566;8.846;2023-02-27T15:29:52;1.40;99.90
29295;DHT22;16305;48.566;8.846;2023-02-27T15:32:30;1.40;99.90
29295;DHT22;16305;48.566;8.846;2023-02-27T15:34:59;1.30;99.90
29295;DHT22;16305;48.566;8.846;2023-02-27T15:37:28;1.20;99.90
29295;DHT22;16305;48.566;8.846;2023-02-27T15:39:55;1.10;99.90
29295;DHT22;16305;48.566;8.846;2023-02-27T15:42:28;1.10;99.90
29295;DHT22;16305;48.566;8.846;2023-02-27T15:44:55;1.10;99.90
29295;DHT22;16305;48.566;8.846;2023-02-27T15:47:28;1.10;99.90
29295;DHT22;16305;48.566;8.846;2023-02-27T15:50:27;1.10;99.90
29295;DHT22;16305;48.566;8.846;2023-02-27T15:53:03;1.10;99.90
29295;DHT22;16305;48.566;8.846;2023-02-27T15:55:34;1.10;99.90
29295;DHT22;16305;48.566;8.846;2023-02-27T15:58:01;1.10;99.90
29295;DHT22;16305;48.566;8.846;2023-02-27T16:00:28;1.00;99.90
29295;DHT22;16305;48.566;8.846;2023-02-27T16:02:56;1.00;99.90
29295;DHT22;16305;48.566;8.846;2023-02-27T16:05:23;1.00;99.90
29295;DHT22;16305;48.566;8.846;2023-02-27T16:07:50;1.00;99.90
29295;DHT22;16305;48.566;8.846;2023-02-27T16:10:25;1.00;99.90
29295;DHT22;16305;48.566;8.846;2023-02-27T16:12:52;0.90;99.90
29295;DHT22;16305;48.566;8.846;2023-02-27T16:15:30;0.80;99.90
29295;DHT22;16305;48.566;8.846;2023-02-27T16:20:50;0.80;99.90
29295;DHT22;16305;48.566;8.846;2023-02-27T16:23:24;0.80;99.90
29295;DHT22;16305;48.566;8.846;2023-02-27T16:26:11;0.70;99.90
29295;DHT22;16305;48.566;8.846;2023-02-27T16:28:49;0.80;99.90
29295;DHT22;16305;48.566;8.846;2023-02-27T16:31:24;0.80;99.90
29295;DHT22;16305;48.566;8.846;2023-02-27T16:33:51;0.70;99.90
29295;DHT22;16305;48.566;8.846;2023-02-27T16:36:28;0.70;99.90
29295;DHT22;16305;48.566;8.846;2023-02-27T16:38:55;0.60;99.90
29295;DHT22;16305;48.566;8.846;2023-02-27T16:41:22;0.60;99.90
29295;DHT22;16305;48.566;8.846;2023-02-27T16:43:48;0.50;99.90
29295;DHT22;16305;48.566;8.846;2023-02-27T16:46:16;0.40;99.90
29295;DHT22;16305;48.566;8.846;2023-02-27T16:48:50;0.40;99.90
29295;DHT22;16305;48.566;8.846;2023-02-27T16:51:17;0.40;99.90
29295;DHT22;16305;48.566;8.846;2023-02-27T16:53:45;0.40;99.90
29295;DHT22;16305;48.566;8.846;2023-02-27T16:56:11;0.40;99.90
29295;DHT22;16305;48.566;8.846;2023-02-27T16:58:38;0.40;99.90
29295;DHT22;16305;48.566;8.846;2023-02-27T17:01:03;0.30;99.90
29295;DHT22;16305;48.566;8.846;2023-02-27T17:03:29;0.40;99.90
29295;DHT22;16305;48.566;8.846;2023-02-27T17:05:55;0.40;99.90
29295;DHT22;16305;48.566;8.846;2023-02-27T17:08:22;0.40;99.90
29295;DHT22;16305;48.566;8.846;2023-02-27T17:10:48;0.30;99.90
29295;DHT22;16305;48.566;8.846;2023-02-27T17:13:13;0.30;99.90
29295;DHT22;16305;48.566;8.846;2023-02-27T17:15:39;0.30;99.90
29295;DHT22;16305;48.566;8.846;2023-02-27T17:18:04;0.20;99.90
29295;DHT22;16305;48.566;8.846;2023-02-27T17:20:30;0.30;99.90
29295;DHT22;16305;48.566;8.846;2023-02-27T17:22:56;0.30;99.90
29295;DHT22;16305;48.566;8.846;2023-02-27T17:25:22;0.30;99.90
29295;DHT22;16305;48.566;8.846;2023-02-27T17:27:48;0.20;99.90
29295;DHT22;16305;48.566;8.846;2023-02-27T17:30:14;0.20;99.90
29295;DHT22;16305;48.566;8.846;2023-02-27T17:32:40;0.20;99.90
29295;DHT22;16305;48.566;8.846;2023-02-27T17:35:06;0.20;99.90
29295;DHT22;16305;48.566;8.846;2023-02-27T17:37:31;0.20;99.90
29295;DHT22;16305;48.566;8.846;2023-02-27T17:39:57;0.20;99.90
29295;DHT22;16305;48.566;8.846;2023-02-27T17:42:22;0.10;99.90
29295;DHT22;16305;48.566;8.846;2023-02-27T17:44:50;0.10;99.90
29295;DHT22;16305;48.566;8.846;2023-02-27T17:47:16;0.10;99.90
29295;DHT22;16305;48.566;8.846;2023-02-27T17:49:42;0.00;99.90
29295;DHT22;16305;48.566;8.846;2023-02-27T17:52:08;0.10;99.90
29295;DHT22;16305;48.566;8.846;2023-02-27T17:54:34;0.00;99.90
29295;DHT22;16305;48.566;8.846;2023-02-27T17:57:00;0.00;99.90
29295;DHT22;16305;48.566;8.846;2023-02-27T17:59:25;0.00;99.90
29295;DHT22;16305;48.566;8.846;2023-02-27T18:01:51;0.00;99.90
29295;DHT22;16305;48.566;8.846;2023-02-27T18:04:17;-0.10;99.90
29295;DHT22;16305;48.566;8.846;2023-02-27T18:06:42;-0.10;99.90
29295;DHT22;16305;48.566;8.846;2023-02-27T18:09:08;-0.10;99.90
29295;DHT22;16305;48.566;8.846;2023-02-27T18:11:34;0.00;99.90
29295;DHT22;16305;48.566;8.846;2023-02-27T18:14:02;0.00;99.90
29295;DHT22;16305;48.566;8.846;2023-02-27T18:16:28;-0.10;99.90
29295;DHT22;16305;48.566;8.846;2023-02-27T18:18:53;0.00;99.90
29295;DHT22;16305;48.566;8.846;2023-02-27T18:21:20;-0.10;99.90